Time;durP1;ratioP1;P1;durP2;ratioP2;P2;SDS_P1;SDS_P2;PMS_P1;PMS_P2;Temp;Humidity;BMP_temperature;BMP_pressure;BME280_temperature;BME280_humidity;BME280_pressure;Samples;Min_cycle;Max_cycle;Signal;HPM_P1;HPM_P2
2023/05/27 00:03:05;;;;;;;0.80;0.77;;;;;;;16.02;95.55;102964.97;10436942;28;20045;-79
2023/05/27 00:08:07;;;;;;;0.13;0.10;;;;;;;16.01;96.62;102965.81;10438074;28;20442;-78
2023/05/27 00:13:08;;;;;;;0.47;0.47;;;;;;;15.46;99.17;102964.59;10430444;28;20048;-79
2023/05/27 00:18:11;;;;;;;0.17;0.17;;;;;;;15.87;97.07;102954.88;10452416;28;20400;-79
2023/05/27 00:23:12;;;;;;;0.00;0.00;;;;;;;15.85;97.70;102960.03;10437715;28;20041;-79
2023/05/27 00:28:15;;;;;;;0.20;0.20;;;;;;;15.75;98.30;102950.09;10432066;28;20041;-79
2023/05/27 00:33:16;;;;;;;0.10;0.10;;;;;;;15.74;97.78;102952.63;10455622;28;20045;-79
2023/05/27 00:38:18;;;;;;;0.22;0.22;;;;;;;15.55;99.07;102955.44;10436956;28;20060;-79
2023/05/27 00:43:20;;;;;;;0.22;0.20;;;;;;;16.01;96.50;102958.00;10462395;28;20495;-79
2023/05/27 00:48:22;;;;;;;0.00;0.00;;;;;;;16.77;93.61;102951.09;10453043;28;20048;-79
2023/05/27 00:53:24;;;;;;;16.35;0.73;;;;;;;15.59;99.04;102950.38;10429420;28;20447;-79
2023/05/27 00:58:27;;;;;;;0.15;0.00;;;;;;;15.62;98.47;102953.06;10446517;28;20430;-79
2023/05/27 01:03:32;;;;;;;0.30;0.20;;;;;;;15.02;100.00;102947.31;10452183;28;20049;-79
2023/05/27 01:08:40;;;;;;;2.30;1.25;;;;;;;15.23;100.00;102933.41;10462479;28;20403;-79
2023/05/27 01:13:48;;;;;;;0.80;0.50;;;;;;;14.80;100.00;102944.69;10433444;28;20036;-79
2023/05/27 01:18:53;;;;;;;0.00;0.00;;;;;;;15.04;100.00;102926.59;10450728;28;20052;-79
2023/05/27 01:24:02;;;;;;;0.10;0.10;;;;;;;15.07;100.00;102924.16;10455123;28;20044;-79
2023/05/27 01:29:04;;;;;;;1.90;0.40;;;;;;;15.03;100.00;102924.84;10446232;28;20048;-79
2023/05/27 01:34:09;;;;;;;0.30;0.10;;;;;;;14.87;100.00;102916.44;10434095;28;20037;-79
2023/05/27 01:39:12;;;;;;;0.25;0.25;;;;;;;15.22;100.00;102924.75;10432217;28;20045;-79
2023/05/27 01:44:17;;;;;;;0.73;0.20;;;;;;;15.75;100.00;102911.09;10435655;28;20041;-79
2023/05/27 01:49:19;;;;;;;0.10;0.10;;;;;;;15.50;100.00;102917.09;10428611;28;20052;-79
2023/05/27 01:54:21;;;;;;;0.22;0.00;;;;;;;15.07;100.00;102918.97;10435330;28;20041;-79
2023/05/27 01:59:22;;;;;;;0.10;0.10;;;;;;;15.17;100.00;102913.28;10456396;28;20044;-79
2023/05/27 02:04:24;;;;;;;0.10;0.10;;;;;;;14.96;100.00;102912.44;10443652;28;20480;-79
2023/05/27 02:09:26;;;;;;;0.40;0.32;;;;;;;15.10;100.00;102908.69;10448787;28;20045;-79
2023/05/27 02:14:28;;;;;;;0.20;0.20;;;;;;;15.14;100.00;102915.78;10485141;28;20049;-79
2023/05/27 02:19:30;;;;;;;0.40;0.25;;;;;;;15.29;100.00;102909.41;10442238;28;20041;-79
2023/05/27 02:24:32;;;;;;;0.38;0.10;;;;;;;14.86;100.00;102914.66;10452662;28;20116;-79
2023/05/27 02:29:34;;;;;;;0.10;0.10;;;;;;;14.66;100.00;102923.34;10446103;28;20305;-79
2023/05/27 02:34:37;;;;;;;0.00;0.00;;;;;;;14.87;100.00;102921.63;10436965;28;20500;-79
2023/05/27 02:39:40;;;;;;;0.00;0.00;;;;;;;14.79;100.00;102916.94;10466147;28;20165;-79
2023/05/27 02:44:42;;;;;;;0.10;0.10;;;;;;;14.63;100.00;102920.59;10441770;28;20050;-79
2023/05/27 02:49:43;;;;;;;0.20;0.20;;;;;;;14.73;100.00;102927.97;10425605;28;20065;-79
2023/05/27 02:54:45;;;;;;;2.75;0.57;;;;;;;14.72;100.00;102926.19;10417920;28;20049;-80
2023/05/27 02:59:47;;;;;;;0.15;0.15;;;;;;;14.60;100.00;102927.44;10450653;28;20052;-79
2023/05/27 03:04:49;;;;;;;1.95;0.22;;;;;;;14.50;100.00;102927.84;10459419;28;20048;-79
2023/05/27 03:09:50;;;;;;;0.10;0.10;;;;;;;14.56;100.00;102925.50;10451675;28;20040;-79
2023/05/27 03:14:53;;;;;;;2.20;0.30;;;;;;;14.80;100.00;102914.41;10442051;28;20076;-79
2023/05/27 03:19:55;;;;;;;0.17;0.10;;;;;;;14.27;100.00;102927.75;10456204;28;20127;-80
2023/05/27 03:24:57;;;;;;;0.05;0.05;;;;;;;14.32;100.00;102919.31;10453992;28;20040;-79
2023/05/27 03:29:59;;;;;;;0.30;0.30;;;;;;;14.07;100.00;102924.28;10453441;28;20148;-79
2023/05/27 03:35:01;;;;;;;0.75;0.20;;;;;;;14.24;100.00;102922.47;10433967;28;20041;-79
2023/05/27 03:40:03;;;;;;;0.47;0.28;;;;;;;14.55;100.00;102907.31;10447092;28;20474;-79
2023/05/27 03:45:07;;;;;;;0.73;0.47;;;;;;;14.54;100.00;102900.34;10450183;28;20045;-79
2023/05/27 03:50:10;;;;;;;1.92;0.43;;;;;;;15.06;100.00;102904.19;10436367;28;20056;-79
2023/05/27 03:55:11;;;;;;;0.38;0.20;;;;;;;14.95;100.00;102901.19;10448996;28;20041;-79
2023/05/27 04:00:16;;;;;;;0.10;0.10;;;;;;;15.37;100.00;102898.47;10434358;28;20099;-79
2023/05/27 04:05:25;;;;;;;0.28;0.20;;;;;;;14.53;100.00;102899.47;10453489;28;20132;-80
2023/05/27 04:10:27;;;;;;;0.10;0.10;;;;;;;14.88;100.00;102894.84;10452827;28;20041;-79
2023/05/27 04:15:30;;;;;;;0.22;0.22;;;;;;;15.14;100.00;102884.63;10452019;28;20052;-80
2023/05/27 04:20:39;;;;;;;0.00;0.00;;;;;;;15.27;100.00;102887.69;10452869;28;20475;-79
2023/05/27 04:25:42;;;;;;;1.08;0.65;;;;;;;14.93;100.00;102883.78;10466122;28;20033;-80
2023/05/27 04:30:47;;;;;;;0.70;0.47;;;;;;;14.36;100.00;102900.44;10462348;28;20174;-80
2023/05/27 04:36:10;;;;;;;0.30;0.30;;;;;;;14.74;100.00;102883.03;10435314;28;20065;-80
2023/05/27 04:41:32;;;;;;;;;;;;;;;15.10;100.00;102882.72;10444347;28;20060;-80
2023/05/27 04:46:43;;;;;;;1.75;1.13;;;;;;;15.62;100.00;102882.91;10447800;28;19944;-79
2023/05/27 04:51:47;;;;;;;0.75;0.50;;;;;;;15.27;100.00;102879.88;10430378;28;20048;-79
2023/05/27 04:56:51;;;;;;;1.02;0.52;;;;;;;15.73;100.00;102871.22;10432753;28;20098;-79
2023/05/27 05:02:21;;;;;;;0.28;0.17;;;;;;;15.34;100.00;102876.69;10466425;28;20051;-79
2023/05/27 05:07:41;;;;;;;0.55;0.40;;;;;;;16.24;100.00;102864.31;10456198;28;20045;-79
2023/05/27 05:12:45;;;;;;;0.22;0.22;;;;;;;16.60;100.00;102859.47;10452445;28;20048;-79
2023/05/27 05:17:47;;;;;;;0.40;0.15;;;;;;;15.45;100.00;102870.19;10442688;28;20049;-79
2023/05/27 05:22:49;;;;;;;0.32;0.32;;;;;;;15.63;100.00;102864.81;10455304;28;20559;-78
2023/05/27 05:27:52;;;;;;;0.38;0.30;;;;;;;16.29;100.00;102862.75;10440454;28;20076;-79
2023/05/27 05:32:54;;;;;;;4.35;0.65;;;;;;;15.32;100.00;102854.97;10452294;28;20045;-79
2023/05/27 05:37:59;;;;;;;0.20;0.20;;;;;;;15.64;100.00;102855.28;10454570;28;20099;-80
2023/05/27 05:43:01;;;;;;;0.20;0.20;;;;;;;16.48;100.00;102846.03;10432935;28;20041;-79
2023/05/27 05:48:03;;;;;;;0.65;0.22;;;;;;;16.31;100.00;102851.56;10453609;28;20510;-79
2023/05/27 05:53:05;;;;;;;1.23;0.73;;;;;;;16.37;100.00;102844.81;10458054;28;20377;-80
2023/05/27 05:58:07;;;;;;;0.55;0.55;;;;;;;17.39;100.00;102838.41;10449114;28;20049;-79
2023/05/27 06:03:09;;;;;;;1.42;0.30;;;;;;;16.97;100.00;102841.50;10445151;28;20140;-79
2023/05/27 06:08:17;;;;;;;0.57;0.45;;;;;;;17.21;100.00;102843.97;10441540;28;20507;-79
2023/05/27 06:13:29;;;;;;;0.15;0.13;;;;;;;17.74;100.00;102846.34;10450367;28;20068;-78
2023/05/27 06:18:33;;;;;;;0.20;0.20;;;;;;;17.86;100.00;102850.09;10429650;28;20044;-79
2023/05/27 06:23:35;;;;;;;3.63;0.43;;;;;;;18.50;100.00;102848.28;10456027;28;20128;-79
2023/05/27 06:28:48;;;;;;;0.20;0.10;;;;;;;18.23;100.00;102843.25;10444287;28;20053;-78
2023/05/27 06:33:50;;;;;;;0.20;0.20;;;;;;;18.21;100.00;102834.50;10463391;28;20041;-79
2023/05/27 06:38:53;;;;;;;5.90;1.15;;;;;;;18.91;100.00;102834.41;10438499;28;20048;-79
2023/05/27 06:43:55;;;;;;;0.03;0.03;;;;;;;18.79;100.00;102831.53;10472521;28;20045;-80
2023/05/27 06:49:12;;;;;;;0.13;0.13;;;;;;;19.08;100.00;102829.56;10464494;28;20045;-79
2023/05/27 06:54:13;;;;;;;0.22;0.22;;;;;;;19.29;98.89;102823.94;10434215;28;20048;-80
2023/05/27 06:59:18;;;;;;;0.00;0.00;;;;;;;20.16;97.57;102809.81;10474603;28;20163;-79
2023/05/27 07:04:22;;;;;;;0.68;0.68;;;;;;;20.44;93.19;102810.25;10452647;28;20510;-79
2023/05/27 07:09:27;;;;;;;0.22;0.10;;;;;;;20.24;96.47;102805.59;10455415;28;20094;-79
2023/05/27 07:14:29;;;;;;;0.13;0.13;;;;;;;21.94;91.13;102793.75;10454688;28;20059;-79
2023/05/27 07:19:31;;;;;;;0.00;0.00;;;;;;;22.12;91.76;102785.13;10446967;28;20052;-79
2023/05/27 07:24:37;;;;;;;0.35;0.20;;;;;;;21.87;88.71;102782.31;10458869;28;20484;-79
2023/05/27 07:29:39;;;;;;;0.80;0.40;;;;;;;21.77;87.70;102780.47;10452863;28;20461;-79
2023/05/27 07:34:46;;;;;;;0.43;0.43;;;;;;;22.69;84.14;102771.50;10463333;28;20053;-79
2023/05/27 07:39:50;;;;;;;0.30;0.30;;;;;;;23.02;83.35;102769.00;10441472;28;20052;-79
2023/05/27 07:44:54;;;;;;;1.73;0.47;;;;;;;23.37;84.42;102768.28;10447705;28;20072;-79
2023/05/27 07:49:55;;;;;;;0.05;0.05;;;;;;;22.97;81.61;102764.63;10455243;28;20057;-79
2023/05/27 07:55:16;;;;;;;1.50;0.45;;;;;;;24.68;80.78;102747.13;10452692;28;20052;-80
2023/05/27 08:00:19;;;;;;;0.57;0.30;;;;;;;24.02;79.57;102750.75;10446511;28;20080;-80
2023/05/27 08:05:26;;;;;;;0.10;0.10;;;;;;;23.51;78.04;102755.13;10453183;28;20419;-80
2023/05/27 08:10:47;;;;;;;0.30;0.15;;;;;;;24.34;76.02;102743.72;10452820;28;20496;-79
2023/05/27 08:15:59;;;;;;;0.93;0.52;;;;;;;24.77;77.41;102732.13;10448332;28;20060;-79
2023/05/27 08:21:10;;;;;;;5.72;0.70;;;;;;;25.58;74.70;102714.94;10446506;28;20045;-80
2023/05/27 08:26:43;;;;;;;0.60;0.28;;;;;;;25.46;70.55;102708.03;10437895;28;20061;-80
2023/05/27 08:32:11;;;;;;;1.02;0.77;;;;;;;26.12;73.01;102705.66;10439803;28;20087;-79
2023/05/27 08:37:12;;;;;;;0.98;0.55;;;;;;;26.76;71.70;102695.25;10448980;28;20102;-79
2023/05/27 08:42:17;;;;;;;0.25;0.20;;;;;;;25.66;71.82;102699.91;10445409;28;20399;-80
2023/05/27 08:47:19;;;;;;;0.30;0.30;;;;;;;26.02;71.99;102685.50;10430296;28;20096;-80
2023/05/27 08:52:21;;;;;;;1.02;0.93;;;;;;;27.21;66.89;102671.63;10434970;28;20102;-80
2023/05/27 08:57:29;;;;;;;1.55;0.10;;;;;;;27.07;68.13;102669.19;10445928;28;20045;-80
2023/05/27 09:02:31;;;;;;;0.47;0.43;;;;;;;26.29;67.49;102664.09;10441695;28;20389;-80
2023/05/27 09:07:32;;;;;;;0.30;0.15;;;;;;;25.87;66.15;102663.66;10444875;28;20407;-80
2023/05/27 09:12:35;;;;;;;0.20;0.20;;;;;;;27.08;64.86;102656.84;10446841;28;20044;-80
2023/05/27 09:17:44;;;;;;;3.22;0.60;;;;;;;26.24;65.11;102654.47;10428399;28;20514;-80
2023/05/27 09:22:46;;;;;;;;;;;;;;;26.50;61.60;102651.47;10434778;28;20053;-80
2023/05/27 09:27:47;;;;;;;0.20;0.20;;;;;;;28.29;62.81;102641.44;10463856;28;19928;-80
2023/05/27 09:32:50;;;;;;;0.20;0.20;;;;;;;28.08;60.78;102646.28;10466435;28;20049;-80
2023/05/27 09:37:52;;;;;;;1.20;1.02;;;;;;;27.87;61.86;102639.59;10449683;28;20124;-80
2023/05/27 09:42:53;;;;;;;1.25;0.68;;;;;;;27.94;59.50;102637.72;10427219;28;20052;-79
2023/05/27 09:47:57;;;;;;;2.28;0.28;;;;;;;28.49;55.16;102633.06;10449691;28;20063;-80
2023/05/27 09:53:01;;;;;;;0.57;0.52;;;;;;;28.00;59.04;102634.94;10431628;28;20047;-80
2023/05/27 09:58:12;;;;;;;0.40;0.30;;;;;;;28.64;56.61;102622.09;10442394;28;20048;-80
2023/05/27 10:03:16;;;;;;;0.10;0.10;;;;;;;28.75;53.39;102623.66;10437767;28;20392;-80
2023/05/27 10:08:19;;;;;;;0.40;0.40;;;;;;;28.28;59.59;102600.81;10463792;28;20070;-81
2023/05/27 10:13:25;;;;;;;0.00;0.00;;;;;;;30.01;52.29;102603.59;10449802;28;20056;-80
2023/05/27 10:18:29;;;;;;;1.35;0.30;;;;;;;29.24;55.83;102587.94;10441635;28;20041;-80
2023/05/27 10:23:31;;;;;;;1.30;0.73;;;;;;;29.73;53.29;102588.41;10442707;28;20392;-80
2023/05/27 10:28:41;;;;;;;0.10;0.10;;;;;;;30.01;51.77;102582.31;10464668;28;20055;-82
2023/05/27 10:33:52;;;;;;;0.88;0.50;;;;;;;29.13;51.18;102579.38;10455153;28;20045;-80
2023/05/27 10:39:05;;;;;;;3.30;0.57;;;;;;;29.88;52.70;102575.59;10469814;28;20487;-81
2023/05/27 10:44:07;;;;;;;5.47;0.70;;;;;;;27.46;53.18;102581.25;10452919;28;20491;-82
2023/05/27 10:49:23;;;;;;;1.17;0.82;;;;;;;26.95;51.66;102578.59;10473458;28;20139;-81
2023/05/27 10:54:24;;;;;;;4.18;0.52;;;;;;;30.70;50.58;102555.38;10434426;28;20052;-80
2023/05/27 10:59:40;;;;;;;0.82;0.20;;;;;;;28.57;50.52;102555.97;10454509;28;20045;-80
2023/05/27 11:04:42;;;;;;;0.80;0.47;;;;;;;29.90;45.27;102547.19;10473239;28;20049;-80
2023/05/27 11:09:50;;;;;;;0.20;0.20;;;;;;;29.40;50.19;102540.66;10454412;28;20080;-81
2023/05/27 11:14:53;;;;;;;3.97;0.43;;;;;;;30.61;46.58;102529.09;10438173;28;20095;-80
2023/05/27 11:19:55;;;;;;;0.65;0.30;;;;;;;30.75;44.92;102525.09;10463183;28;20443;-81
2023/05/27 11:25:02;;;;;;;1.63;0.80;;;;;;;29.68;48.04;102515.94;10456713;28;20041;-80
2023/05/27 11:30:13;;;;;;;0.10;0.10;;;;;;;30.08;45.66;102508.63;10437674;28;20135;-81
2023/05/27 11:35:17;;;;;;;0.93;0.38;;;;;;;29.83;45.95;102508.44;10426093;28;20049;-80
2023/05/27 11:40:19;;;;;;;0.00;0.00;;;;;;;30.38;45.48;102496.13;10469539;28;20076;-82
2023/05/27 11:45:21;;;;;;;4.32;0.30;;;;;;;30.23;42.31;102492.16;10445917;28;20052;-80
2023/05/27 11:50:24;;;;;;;0.10;0.10;;;;;;;30.91;43.87;102486.38;10459913;28;20144;-80
2023/05/27 11:55:26;;;;;;;0.65;0.20;;;;;;;29.51;42.66;102483.72;10446473;28;20076;-82
2023/05/27 12:00:27;;;;;;;2.17;0.55;;;;;;;30.43;46.32;102468.50;10448782;28;20037;-80
2023/05/27 12:05:29;;;;;;;0.20;0.20;;;;;;;29.53;47.34;102463.28;10452429;28;20033;-80
2023/05/27 12:10:35;;;;;;;0.00;0.00;;;;;;;30.94;46.05;102451.66;10454019;28;20048;-80
2023/05/27 12:15:37;;;;;;;0.90;0.75;;;;;;;29.13;42.92;102459.97;10460088;28;20059;-81
2023/05/27 12:20:39;;;;;;;1.08;0.45;;;;;;;30.15;45.61;102441.06;10443504;28;20103;-80
2023/05/27 12:25:40;;;;;;;0.10;0.10;;;;;;;30.39;45.01;102425.19;10433385;28;20471;-80
2023/05/27 12:30:42;;;;;;;0.20;0.20;;;;;;;30.50;45.55;102425.72;10450788;28;20106;-80
2023/05/27 12:35:46;;;;;;;0.32;0.32;;;;;;;30.13;43.19;102420.75;10468154;28;20480;-80
2023/05/27 12:40:48;;;;;;;1.40;0.95;;;;;;;29.35;44.89;102414.25;10431040;28;20496;-80
2023/05/27 12:45:50;;;;;;;0.65;0.50;;;;;;;30.09;42.96;102413.81;10428479;28;20454;-81
2023/05/27 12:50:52;;;;;;;0.50;0.20;;;;;;;30.58;42.92;102401.53;10459778;28;20143;-80
2023/05/27 12:55:55;;;;;;;0.20;0.20;;;;;;;31.38;39.98;102400.41;10464522;28;20674;-80
2023/05/27 13:00:56;;;;;;;1.55;0.63;;;;;;;31.26;42.83;102399.06;10452937;28;20049;-79
2023/05/27 13:05:58;;;;;;;1.00;0.65;;;;;;;28.62;41.70;102401.19;10453231;28;20033;-84
2023/05/27 13:11:00;;;;;;;0.10;0.10;;;;;;;30.00;40.98;102383.94;10450902;28;20045;-79
2023/05/27 13:16:02;;;;;;;0.20;0.20;;;;;;;30.82;41.28;102382.94;10436287;28;20083;-79
2023/05/27 13:21:04;;;;;;;1.02;0.22;;;;;;;31.62;43.63;102373.75;10450976;28;20049;-79
2023/05/27 13:26:06;;;;;;;0.70;0.20;;;;;;;31.13;41.62;102364.06;10465643;28;20510;-79
2023/05/27 13:31:07;;;;;;;0.85;0.47;;;;;;;30.77;41.70;102353.84;10436421;28;20049;-79
2023/05/27 13:36:10;;;;;;;1.02;0.73;;;;;;;29.85;40.73;102357.84;10439762;28;20447;-80
2023/05/27 13:41:12;;;;;;;0.82;0.38;;;;;;;30.86;42.49;102347.34;10451519;28;20060;-79
2023/05/27 13:46:13;;;;;;;0.90;0.68;;;;;;;30.43;41.87;102348.84;10452341;28;20040;-79
2023/05/27 13:51:15;;;;;;;0.00;0.00;;;;;;;30.80;43.64;102342.22;10447751;28;20048;-79
2023/05/27 13:56:17;;;;;;;0.00;0.00;;;;;;;30.51;42.11;102331.75;10460342;28;20040;-80
2023/05/27 14:01:19;;;;;;;1.13;0.50;;;;;;;29.51;43.88;102327.06;10456223;28;20381;-80
2023/05/27 14:06:21;;;;;;;1.20;0.50;;;;;;;30.09;41.60;102307.50;10445329;28;20041;-81
2023/05/27 14:11:23;;;;;;;3.20;0.75;;;;;;;29.94;41.87;102315.09;10459904;28;20483;-82
2023/05/27 14:16:24;;;;;;;0.00;0.00;;;;;;;30.01;40.08;102303.31;10430293;28;20049;-80
2023/05/27 14:21:26;;;;;;;0.17;0.17;;;;;;;30.67;41.25;102300.13;10439157;28;20076;-79
2023/05/27 14:26:28;;;;;;;0.73;0.32;;;;;;;30.02;43.22;102297.09;10438322;28;20070;-80
2023/05/27 14:31:29;;;;;;;0.30;0.10;;;;;;;30.32;41.78;102294.28;10430653;28;20048;-79
2023/05/27 14:36:31;;;;;;;0.20;0.20;;;;;;;30.21;42.63;102275.16;10438768;28;20538;-79
2023/05/27 14:41:33;;;;;;;0.90;0.43;;;;;;;29.38;40.31;102284.97;10449663;28;20053;-80
2023/05/27 14:46:34;;;;;;;0.22;0.10;;;;;;;29.58;41.21;102272.84;10450538;28;20040;-80
2023/05/27 14:51:36;;;;;;;0.00;0.00;;;;;;;30.11;41.88;102268.47;10448256;28;20519;-79
2023/05/27 14:56:38;;;;;;;0.20;0.20;;;;;;;30.30;41.92;102264.22;10453529;28;20043;-79
2023/05/27 15:01:39;;;;;;;0.08;0.08;;;;;;;29.82;41.49;102262.34;10434664;28;20495;-79
2023/05/27 15:06:41;;;;;;;0.15;0.15;;;;;;;30.02;42.74;102254.56;10440400;28;20037;-80
2023/05/27 15:11:43;;;;;;;0.68;0.50;;;;;;;29.57;41.89;102257.84;10477300;28;20048;-82
2023/05/27 15:16:44;;;;;;;0.25;0.05;;;;;;;30.34;41.02;102249.91;10449611;28;20505;-80
2023/05/27 15:21:46;;;;;;;2.00;0.70;;;;;;;30.67;40.90;102241.63;10451215;28;20059;-79
2023/05/27 15:26:48;;;;;;;0.55;0.20;;;;;;;30.89;40.09;102243.44;10453255;28;20384;-80
2023/05/27 15:31:50;;;;;;;0.10;0.00;;;;;;;29.55;40.38;102239.31;10436428;28;20041;-80
2023/05/27 15:36:58;;;;;;;0.47;0.40;;;;;;;30.64;40.62;102230.22;10469329;28;20408;-80
2023/05/27 15:42:00;;;;;;;0.00;0.00;;;;;;;30.34;41.98;102225.97;10473731;28;20048;-79
2023/05/27 15:47:01;;;;;;;0.52;0.50;;;;;;;30.77;41.41;102217.31;10440900;28;20059;-80
2023/05/27 15:52:05;;;;;;;0.25;0.22;;;;;;;28.96;41.01;102225.22;10451017;28;20061;-81
2023/05/27 15:57:08;;;;;;;0.75;0.32;;;;;;;30.20;42.16;102214.97;10433100;28;20047;-79
2023/05/27 16:02:10;;;;;;;0.43;0.22;;;;;;;29.67;41.98;102210.59;10464316;28;20099;-80
2023/05/27 16:07:12;;;;;;;3.30;0.10;;;;;;;30.55;41.21;102204.84;10456888;28;20045;-80
2023/05/27 16:12:14;;;;;;;0.00;0.00;;;;;;;29.10;42.08;102210.66;10464363;28;20075;-80
2023/05/27 16:17:15;;;;;;;0.57;0.22;;;;;;;29.28;42.40;102203.91;10474757;28;20473;-80
2023/05/27 16:22:17;;;;;;;1.08;0.35;;;;;;;29.63;41.98;102198.38;10473458;28;20064;-80
2023/05/27 16:27:19;;;;;;;1.00;0.20;;;;;;;30.04;40.18;102194.28;10463243;28;20048;-81
2023/05/27 16:32:20;;;;;;;0.10;0.10;;;;;;;29.98;42.75;102181.19;10457875;28;20103;-79
2023/05/27 16:37:22;;;;;;;0.75;0.40;;;;;;;30.08;40.18;102173.78;10437287;28;20048;-79
2023/05/27 16:42:24;;;;;;;0.10;0.10;;;;;;;29.69;42.68;102179.56;10475290;28;20346;-80
2023/05/27 16:47:26;;;;;;;0.17;0.10;;;;;;;30.61;41.25;102162.06;10459319;28;20778;-79
2023/05/27 16:52:27;;;;;;;0.32;0.15;;;;;;;29.65;41.71;102165.50;10458810;28;20041;-79
2023/05/27 16:57:29;;;;;;;0.20;0.10;;;;;;;29.99;40.57;102153.72;10439344;28;20048;-79
2023/05/27 17:02:31;;;;;;;4.38;0.13;;;;;;;29.45;42.81;102158.22;10437296;28;20056;-81
2023/05/27 17:07:32;;;;;;;0.00;0.00;;;;;;;29.22;42.53;102151.03;10448689;28;20127;-80
2023/05/27 17:12:34;;;;;;;1.80;0.75;;;;;;;28.73;42.04;102149.00;10457100;28;20060;-80
2023/05/27 17:17:36;;;;;;;0.60;0.45;;;;;;;29.01;41.91;102150.78;10460836;28;20044;-80
2023/05/27 17:22:38;;;;;;;0.22;0.22;;;;;;;29.00;42.11;102146.41;10438827;28;20053;-80
2023/05/27 17:27:39;;;;;;;0.65;0.30;;;;;;;29.09;41.24;102148.75;10450925;28;20049;-79
2023/05/27 17:32:41;;;;;;;0.00;0.00;;;;;;;28.65;41.39;102146.59;10474762;28;20049;-80
2023/05/27 17:37:43;;;;;;;0.28;0.20;;;;;;;29.08;42.03;102149.66;10463765;28;20480;-80
2023/05/27 17:42:44;;;;;;;0.00;0.00;;;;;;;28.47;41.69;102155.97;10455658;28;20057;-80
2023/05/27 17:47:46;;;;;;;1.25;0.15;;;;;;;29.63;40.88;102145.25;10456435;28;20048;-80
2023/05/27 17:52:48;;;;;;;0.05;0.00;;;;;;;29.31;41.59;102145.41;10455930;28;20060;-80
2023/05/27 17:57:50;;;;;;;0.52;0.20;;;;;;;28.87;42.37;102139.75;10446538;28;20044;-80
2023/05/27 18:02:51;;;;;;;0.60;0.32;;;;;;;28.48;42.72;102136.47;10467281;28;20048;-80
2023/05/27 18:07:53;;;;;;;0.00;0.00;;;;;;;28.27;43.12;102129.16;10451329;28;20511;-80
2023/05/27 18:12:55;;;;;;;0.00;0.00;;;;;;;28.16;42.46;102130.34;10461487;28;20045;-80
2023/05/27 18:17:57;;;;;;;0.15;0.15;;;;;;;28.06;42.93;102130.66;10455654;28;20128;-80
2023/05/27 18:22:59;;;;;;;0.00;0.00;;;;;;;27.44;42.01;102140.22;10476549;28;20036;-80
2023/05/27 18:28:00;;;;;;;0.15;0.03;;;;;;;27.94;43.13;102137.13;10476123;28;20051;-80
2023/05/27 18:33:05;;;;;;;0.10;0.10;;;;;;;27.92;43.02;102138.94;10448396;28;20596;-80
2023/05/27 18:38:07;;;;;;;0.00;0.00;;;;;;;27.58;43.21;102145.16;10477871;28;20495;-80
2023/05/27 18:43:09;;;;;;;1.75;0.57;;;;;;;27.47;44.22;102135.72;10460285;28;20091;-80
2023/05/27 18:48:11;;;;;;;0.82;0.38;;;;;;;27.32;44.94;102144.91;10455325;28;20037;-80
2023/05/27 18:53:12;;;;;;;0.10;0.10;;;;;;;28.14;44.85;102134.81;10477143;28;20059;-80
2023/05/27 18:58:14;;;;;;;0.15;0.00;;;;;;;27.61;47.07;102143.31;10456069;28;20397;-80
2023/05/27 19:03:17;;;;;;;0.10;0.10;;;;;;;27.34;47.53;102148.34;10467126;28;20067;-80
2023/05/27 19:08:18;;;;;;;0.20;0.13;;;;;;;27.19;48.42;102144.31;10467175;28;20045;-80
2023/05/27 19:13:20;;;;;;;0.20;0.10;;;;;;;27.29;46.76;102144.09;10443810;28;20451;-80
2023/05/27 19:18:22;;;;;;;0.40;0.20;;;;;;;26.98;47.44;102144.84;10448511;28;20068;-80
2023/05/27 19:23:23;;;;;;;0.00;0.00;;;;;;;26.87;48.19;102150.38;10444813;28;20496;-80
2023/05/27 19:28:25;;;;;;;0.00;0.00;;;;;;;26.79;48.54;102154.97;10474455;28;20057;-80
2023/05/27 19:33:27;;;;;;;0.45;0.13;;;;;;;26.84;48.06;102147.78;10483982;28;20080;-80
2023/05/27 19:38:29;;;;;;;0.30;0.30;;;;;;;26.79;50.45;102150.53;10477537;28;20398;-81
2023/05/27 19:43:31;;;;;;;0.08;0.00;;;;;;;26.77;49.73;102157.63;10454674;28;20053;-80
2023/05/27 19:48:32;;;;;;;0.00;0.00;;;;;;;25.55;54.03;102159.94;10465897;28;20136;-80
2023/05/27 19:53:35;;;;;;;0.00;0.00;;;;;;;26.17;55.25;102150.94;10440534;28;20052;-80
2023/05/27 19:58:37;;;;;;;0.00;0.00;;;;;;;24.35;61.97;102160.75;10473610;28;20067;-80
2023/05/27 20:03:39;;;;;;;0.13;0.13;;;;;;;23.90;69.22;102169.09;10440982;28;20151;-81
2023/05/27 20:08:41;;;;;;;0.68;0.17;;;;;;;24.70;65.07;102156.81;10455848;28;20563;-80
2023/05/27 20:13:43;;;;;;;0.00;0.00;;;;;;;25.14;60.42;102167.59;10456530;28;20127;-80
2023/05/27 20:18:45;;;;;;;0.13;0.13;;;;;;;24.86;63.39;102168.03;10436694;28;20491;-80
2023/05/27 20:23:46;;;;;;;0.00;0.00;;;;;;;23.95;65.42;102169.94;10457019;28;20056;-80
2023/05/27 20:28:48;;;;;;;0.00;0.00;;;;;;;23.03;72.40;102175.00;10502817;28;20040;-80
2023/05/27 20:33:50;;;;;;;0.20;0.13;;;;;;;23.54;71.22;102171.16;10461657;28;20484;-80
2023/05/27 20:38:56;;;;;;;0.28;0.28;;;;;;;23.38;71.89;102171.28;10470452;28;20040;-81
2023/05/27 20:43:59;;;;;;;0.45;0.20;;;;;;;22.14;78.24;102170.94;10459884;28;20060;-80
2023/05/27 20:49:02;;;;;;;0.00;0.00;;;;;;;23.27;70.57;102168.75;10463768;28;20043;-80
2023/05/27 20:54:03;;;;;;;0.10;0.10;;;;;;;23.32;71.45;102165.19;10456965;28;20052;-80
2023/05/27 20:59:05;;;;;;;0.10;0.10;;;;;;;22.94;74.62;102160.16;10443521;28;20148;-80
2023/05/27 21:04:08;;;;;;;0.10;0.05;;;;;;;22.10;80.14;102166.59;10472090;28;20105;-80
2023/05/27 21:09:10;;;;;;;1.08;0.38;;;;;;;21.99;80.92;102150.88;10454735;28;20106;-80
2023/05/27 21:14:11;;;;;;;0.13;0.13;;;;;;;22.54;76.22;102156.84;10433011;28;20459;-80
2023/05/27 21:19:13;;;;;;;0.22;0.13;;;;;;;22.95;74.17;102150.53;10453914;28;20388;-80
2023/05/27 21:24:15;;;;;;;0.00;0.00;;;;;;;22.31;77.20;102142.03;10470304;28;20060;-80
2023/05/27 21:29:16;;;;;;;0.00;0.00;;;;;;;21.50;81.97;102138.66;10467981;28;20471;-80
2023/05/27 21:34:18;;;;;;;0.10;0.10;;;;;;;21.17;87.90;102149.13;10445551;28;20495;-80
2023/05/27 21:39:20;;;;;;;0.35;0.30;;;;;;;21.29;80.93;102148.25;10473237;28;20044;-80
2023/05/27 21:44:22;;;;;;;0.00;0.00;;;;;;;22.38;77.38;102141.13;10469451;28;20135;-80
2023/05/27 21:49:24;;;;;;;0.20;0.20;;;;;;;22.35;76.64;102139.38;10449902;28;20072;-80
2023/05/27 21:54:26;;;;;;;0.10;0.10;;;;;;;21.85;75.35;102141.28;10467688;28;20041;-80
2023/05/27 21:59:28;;;;;;;0.15;0.15;;;;;;;21.74;79.66;102135.16;10439653;28;20059;-80
2023/05/27 22:04:30;;;;;;;0.47;0.20;;;;;;;22.01;81.04;102133.34;10429491;28;20492;-80
2023/05/27 22:09:32;;;;;;;0.10;0.10;;;;;;;21.58;76.74;102139.56;10455811;28;20052;-80
2023/05/27 22:14:36;;;;;;;0.35;0.20;;;;;;;21.26;78.73;102136.91;10504034;28;20072;-80
2023/05/27 22:19:38;;;;;;;0.17;0.17;;;;;;;21.55;82.39;102124.69;10464759;28;20131;-80
2023/05/27 22:24:40;;;;;;;0.32;0.10;;;;;;;21.40;80.29;102122.06;10478881;28;20075;-80
2023/05/27 22:29:42;;;;;;;0.20;0.17;;;;;;;21.11;80.94;102132.50;10490495;28;20045;-80
2023/05/27 22:34:43;;;;;;;0.20;0.20;;;;;;;21.01;87.37;102126.38;10462729;28;20056;-80
2023/05/27 22:39:45;;;;;;;0.25;0.20;;;;;;;20.61;86.31;102122.75;10445054;28;20055;-80
2023/05/27 22:44:47;;;;;;;0.77;0.32;;;;;;;20.32;87.55;102119.13;10453360;28;20437;-80
2023/05/27 22:49:48;;;;;;;0.80;0.25;;;;;;;19.76;94.31;102116.19;10467472;28;20044;-80
2023/05/27 22:54:51;;;;;;;0.08;0.08;;;;;;;20.63;88.96;102112.25;10480422;28;20079;-80
2023/05/27 22:59:53;;;;;;;0.22;0.15;;;;;;;20.48;85.47;102104.38;10501715;28;20047;-80
2023/05/27 23:04:54;;;;;;;0.10;0.10;;;;;;;19.22;96.28;102115.72;10488037;28;20049;-80
2023/05/27 23:09:56;;;;;;;0.28;0.17;;;;;;;19.99;90.10;102105.03;10501303;28;20131;-80
2023/05/27 23:14:57;;;;;;;0.10;0.00;;;;;;;19.62;89.02;102105.59;10501374;28;20048;-80